Sankuniki — JD2465 — position and weather

sailwx.info

Track history (hours):
 
Tides and Currents Weather Stations Pressure Air Temp Water Temp Dewpoint Dewpoint Depression Visibility Wind Speed Wind Dir Waves Ship Positions

Sankuniki

Last reported at 2015-Mar-04 15:10 UTC. Time now 2015-Mar-05 04:07 UTC.
Position N 35°07' E 139°41'.

Length 71 m; draft 4.2 m.

Type: Cargo ship. MMSI: 431000269.

Date/timePositionNaut miles runAvg speedWind from/ knotsBaromVisibWave heightAir tempDewpointWater temp
2015-Mar-04 15:10N 35°07' E 139°41'910.5
2015-Mar-04 14:19N 35°15' E 139°46'911.2
2015-Mar-04 13:34N 35°23' E 139°42'1310.6
2015-Mar-04 12:21N 35°29' E 139°56'1 0.1
2015-Mar-04 00:23N 35°29' E 139°56'0 0.0
2015-Mar-03 20:09N 35°29' E 139°56'3 2.2
2015-Mar-03 18:33N 35°28' E 139°52'5 0.4
2015-Mar-03 05:32N 35°24' E 139°50'5 3.9
2015-Mar-03 04:21N 35°28' E 139°53'5 1.0
2015-Mar-02 23:12N 35°28' E 139°60'1 0.3
2015-Mar-02 19:30N 35°29' E 139°59'0 0.0
2015-Mar-02 17:29N 35°29' E 139°59'0 0.0
2015-Mar-02 16:22N 35°29' E 139°59'11 1.8
2015-Mar-02 10:32N 35°25' E 139°47'1210.9
2015-Mar-02 09:25N 35°13' E 139°47'  
2015-Feb-23 01:06N 35°15' E 139°46'611.8
2015-Feb-23 00:33N 35°21' E 139°42'8 8.4
2015-Feb-22 23:33N 35°28' E 139°48'  
Track history (hours):
 
Tides and Currents Weather Stations Pressure Air Temp Water Temp Dewpoint Dewpoint Depression Visibility Wind Speed Wind Dir Waves Ship Positions

Sankuniki

Last reported at 2015-Mar-04 15:10 UTC. Time now 2015-Mar-05 04:07 UTC.
Position N 35°07' E 139°41'.

Length 71 m; draft 4.2 m.

Type: Cargo ship. MMSI: 431000269.

Date/timePositionNaut miles runAvg speedWind from/ knotsBaromVisibWave heightAir tempDewpointWater temp
2015-Mar-04 15:10N 35°07' E 139°41'910.5
2015-Mar-04 14:19N 35°15' E 139°46'911.2
2015-Mar-04 13:34N 35°23' E 139°42'1310.6
2015-Mar-04 12:21N 35°29' E 139°56'1 0.1
2015-Mar-04 00:23N 35°29' E 139°56'0 0.0
2015-Mar-03 20:09N 35°29' E 139°56'3 2.2
2015-Mar-03 18:33N 35°28' E 139°52'5 0.4
2015-Mar-03 05:32N 35°24' E 139°50'5 3.9
2015-Mar-03 04:21N 35°28' E 139°53'5 1.0
2015-Mar-02 23:12N 35°28' E 139°60'1 0.3
2015-Mar-02 19:30N 35°29' E 139°59'0 0.0
2015-Mar-02 17:29N 35°29' E 139°59'0 0.0
2015-Mar-02 16:22N 35°29' E 139°59'11 1.8
2015-Mar-02 10:32N 35°25' E 139°47'1210.9
2015-Mar-02 09:25N 35°13' E 139°47'  
2015-Feb-23 01:06N 35°15' E 139°46'611.8
2015-Feb-23 00:33N 35°21' E 139°42'8 8.4
2015-Feb-22 23:33N 35°28' E 139°48'  

Dump ship's entire track history